NCAR-RAP Real-Time Weather Data

Output produced by METARs form (06 May 2021  16:15 UTC)
found at http://weather.rap.ucar.edu/surface/
 
KSTJ 061553Z 34014KT 10SM OVC026 11/04 A3032 RMK AO2 SLP266 T01060039
KSTJ 061453Z 35013KT 10SM OVC020 09/04 A3030 RMK AO2 SLP262 T00940044 51029
KSTJ 061353Z 35012G21KT 10SM OVC018 09/05 A3028 RMK AO2 SLP254 T00890050
KSTJ 061253Z 35012G22KT 10SM OVC015 09/06 A3025 RMK AO2 PK WND 35028/1204 SLP243 T00890056
KSTJ 061239Z 34016KT 9SM OVC015 08/06 A3024 RMK AO2 PK WND 35028/1204 T00830056 $
KSTJ 061210Z 34014G28KT 9SM BKN014 08/06 A3023 RMK AO2 PK WND 35028/1204 T00830061 $
KSTJ 061153Z 34012G22KT 10SM FEW014 08/06 A3022 RMK AO2 SLP231 T00830061 10128 20078 53029 $
KSTJ 061053Z AUTO 34014G22KT 10SM CLR 10/07 A3017 RMK AO2 SLP214 T01000067 $
KSTJ 060953Z AUTO 33008KT 10SM CLR 09/07 A3014 RMK AO2 SLP203 T00940072 $
KSTJ 060853Z AUTO 00000KT 10SM CLR 11/07 A3013 RMK AO2 SLP200 T01060072 53005 $
KSTJ 060753Z AUTO 00000KT 10SM CLR 08/06 A3011 RMK AO2 SLP194 T00830061 $
KSTJ 060653Z AUTO 21005KT 10SM CLR 11/07 A3011 RMK AO2 LTG DSNT E SLP194 T01110067 $
KSTJ 060553Z AUTO 21005KT 10SM SCT075 BKN120 12/07 A3011 RMK AO2 LTG DSNT NE SLP195 60000 T01220072 10183 20117 402170006 50001 $
KSTJ 060453Z AUTO 22011KT 10SM FEW100 14/06 A3012 RMK AO2 SLP195 T01390056
KSTJ 060353Z AUTO 28007KT 10SM FEW120 12/08 A3012 RMK AO2 LTG DSNT SW SLP197 T01220078
KSTJ 060253Z AUTO 18004KT 10SM SCT100 13/07 A3011 RMK AO2 RAE0157 SLP195 P0000 60000 T01330072 53004
KSTJ 060153Z AUTO 12004KT 9SM -RA BKN070 OVC090 14/07 A3010 RMK AO2 RAB33 SLP192 P0000 T01390067